sensor_id;sensor_type;location;lat;lon;timestamp;pressure;altitude;pressure_sealevel;temperature;humidity
9690;BME280;4884;42.614;23.340;2024-03-07T00:02:14;92482.81;;;5.48;100.00
9690;BME280;4884;42.614;23.340;2024-03-07T00:04:39;92377.41;;;4.82;100.00
9690;BME280;4884;42.614;23.340;2024-03-07T00:07:06;92482.97;;;5.52;100.00
9690;BME280;4884;42.614;23.340;2024-03-07T00:09:32;92405.22;;;5.02;100.00
9690;BME280;4884;42.614;23.340;2024-03-07T00:11:58;92490.59;;;5.57;100.00
9690;BME280;4884;42.614;23.340;2024-03-07T00:14:24;92392.56;;;4.92;100.00
9690;BME280;4884;42.614;23.340;2024-03-07T00:16:54;92486.78;;;5.54;100.00
9690;BME280;4884;42.614;23.340;2024-03-07T00:19:19;92409.63;;;5.10;100.00
9690;BME280;4884;42.614;23.340;2024-03-07T00:21:46;92388.31;;;4.87;100.00
9690;BME280;4884;42.614;23.340;2024-03-07T00:24:12;92386.69;;;4.91;100.00
9690;BME280;4884;42.614;23.340;2024-03-07T00:26:39;92352.41;;;4.74;100.00
9690;BME280;4884;42.614;23.340;2024-03-07T00:29:05;92379.50;;;4.80;100.00
9690;BME280;4884;42.614;23.340;2024-03-07T00:31:32;92334.81;;;4.45;100.00
9690;BME280;4884;42.614;23.340;2024-03-07T00:33:58;92488.44;;;5.50;100.00
9690;BME280;4884;42.614;23.340;2024-03-07T00:36:23;92371.34;;;4.78;100.00
9690;BME280;4884;42.614;23.340;2024-03-07T00:38:48;92377.41;;;4.82;100.00
9690;BME280;4884;42.614;23.340;2024-03-07T00:41:14;92492.06;;;5.27;100.00
9690;BME280;4884;42.614;23.340;2024-03-07T00:43:40;92460.31;;;5.09;100.00
9690;BME280;4884;42.614;23.340;2024-03-07T00:46:07;92374.38;;;4.57;100.00
9690;BME280;4884;42.614;23.340;2024-03-07T00:48:32;92470.19;;;5.16;100.00
9690;BME280;4884;42.614;23.340;2024-03-07T00:50:57;92391.06;;;4.69;100.00
9690;BME280;4884;42.614;23.340;2024-03-07T00:53:23;92488.44;;;5.28;100.00
9690;BME280;4884;42.614;23.340;2024-03-07T00:55:48;92378.53;;;4.67;100.00
9690;BME280;4884;42.614;23.340;2024-03-07T00:58:14;92455.13;;;5.23;100.00
9690;BME280;4884;42.614;23.340;2024-03-07T01:00:40;92455.13;;;5.23;100.00
9690;BME280;4884;42.614;23.340;2024-03-07T01:03:11;92446.13;;;5.12;100.00
9690;BME280;4884;42.614;23.340;2024-03-07T01:05:37;92346.75;;;4.41;100.00
9690;BME280;4884;42.614;23.340;2024-03-07T01:08:04;92429.75;;;4.86;100.00
9690;BME280;4884;42.614;23.340;2024-03-07T01:10:29;92430.50;;;4.86;100.00
9690;BME280;4884;42.614;23.340;2024-03-07T01:12:55;92400.44;;;4.87;100.00
9690;BME280;4884;42.614;23.340;2024-03-07T01:15:23;92326.47;;;4.39;100.00
9690;BME280;4884;42.614;23.340;2024-03-07T01:17:48;92345.78;;;4.37;100.00
9690;BME280;4884;42.614;23.340;2024-03-07T01:20:14;92326.34;;;4.22;100.00
9690;BME280;4884;42.614;23.340;2024-03-07T01:22:39;92414.31;;;4.86;100.00
9690;BME280;4884;42.614;23.340;2024-03-07T01:25:06;92367.63;;;4.48;100.00
9690;BME280;4884;42.614;23.340;2024-03-07T01:27:32;92383.06;;;4.70;100.00
9690;BME280;4884;42.614;23.340;2024-03-07T01:29:57;92449.41;;;5.04;100.00
9690;BME280;4884;42.614;23.340;2024-03-07T01:32:23;92429.75;;;4.86;100.00
9690;BME280;4884;42.614;23.340;2024-03-07T01:34:48;92356.38;;;4.57;100.00
9690;BME280;4884;42.614;23.340;2024-03-07T01:37:14;92342.13;;;4.51;100.00
9690;BME280;4884;42.614;23.340;2024-03-07T01:39:39;92440.56;;;5.18;100.00
9690;BME280;4884;42.614;23.340;2024-03-07T01:42:05;92350.72;;;4.69;100.00
9690;BME280;4884;42.614;23.340;2024-03-07T01:44:30;92424.78;;;5.11;100.00
9690;BME280;4884;42.614;23.340;2024-03-07T01:46:58;92401.94;;;4.88;100.00
9690;BME280;4884;42.614;23.340;2024-03-07T01:49:28;92340.44;;;4.47;100.00
9690;BME280;4884;42.614;23.340;2024-03-07T01:51:54;92435.34;;;5.10;100.00
9690;BME280;4884;42.614;23.340;2024-03-07T01:54:19;92319.16;;;4.33;100.00
9690;BME280;4884;42.614;23.340;2024-03-07T01:56:45;92310.31;;;4.17;100.00
9690;BME280;4884;42.614;23.340;2024-03-07T01:59:10;92406.72;;;4.81;100.00
9690;BME280;4884;42.614;23.340;2024-03-07T02:01:37;92397.72;;;4.92;100.00
9690;BME280;4884;42.614;23.340;2024-03-07T02:04:02;92335.97;;;4.61;100.00
9690;BME280;4884;42.614;23.340;2024-03-07T02:06:28;92421.47;;;5.11;100.00
9690;BME280;4884;42.614;23.340;2024-03-07T02:08:53;92381.47;;;4.83;100.00
9690;BME280;4884;42.614;23.340;2024-03-07T02:11:19;92396.38;;;4.94;100.00
9690;BME280;4884;42.614;23.340;2024-03-07T02:13:44;92410.81;;;5.04;100.00
9690;BME280;4884;42.614;23.340;2024-03-07T02:16:11;92441.47;;;5.22;100.00
9690;BME280;4884;42.614;23.340;2024-03-07T02:18:37;92317.41;;;4.42;100.00
9690;BME280;4884;42.614;23.340;2024-03-07T02:21:08;92431.34;;;5.17;100.00
9690;BME280;4884;42.614;23.340;2024-03-07T02:23:34;92329.78;;;4.40;100.00
9690;BME280;4884;42.614;23.340;2024-03-07T02:26:00;92309.28;;;4.26;100.00
9690;BME280;4884;42.614;23.340;2024-03-07T02:28:25;92334.59;;;4.55;100.00
9690;BME280;4884;42.614;23.340;2024-03-07T02:30:50;92316.31;;;4.34;100.00
9690;BME280;4884;42.614;23.340;2024-03-07T02:33:16;92311.75;;;4.31;100.00
9690;BME280;4884;42.614;23.340;2024-03-07T02:35:41;92324.66;;;4.40;100.00
9690;BME280;4884;42.614;23.340;2024-03-07T02:38:07;92413.84;;;5.06;100.00
9690;BME280;4884;42.614;23.340;2024-03-07T02:40:32;92438.41;;;5.12;100.00
9690;BME280;4884;42.614;23.340;2024-03-07T02:42:58;92323.81;;;4.09;100.00
9690;BME280;4884;42.614;23.340;2024-03-07T02:45:23;92283.13;;;4.02;100.00
9690;BME280;4884;42.614;23.340;2024-03-07T02:47:49;92415.91;;;4.73;100.00
9690;BME280;4884;42.614;23.340;2024-03-07T02:50:14;92409.31;;;4.59;100.00
9690;BME280;4884;42.614;23.340;2024-03-07T02:52:40;92410.88;;;4.68;100.00
9690;BME280;4884;42.614;23.340;2024-03-07T02:55:06;92331.47;;;4.22;100.00
9690;BME280;4884;42.614;23.340;2024-03-07T02:57:35;92343.22;;;4.15;100.00
9690;BME280;4884;42.614;23.340;2024-03-07T03:00:02;92401.94;;;4.66;100.00
9690;BME280;4884;42.614;23.340;2024-03-07T03:02:28;92329.69;;;4.23;100.00
9690;BME280;4884;42.614;23.340;2024-03-07T03:04:54;92358.22;;;4.43;100.00
9690;BME280;4884;42.614;23.340;2024-03-07T03:07:20;92402.34;;;4.81;100.00
9690;BME280;4884;42.614;23.340;2024-03-07T03:09:45;92461.09;;;5.10;100.00
9690;BME280;4884;42.614;23.340;2024-03-07T03:12:11;92314.84;;;4.20;100.00
9690;BME280;4884;42.614;23.340;2024-03-07T03:14:37;92434.31;;;4.89;100.00
9690;BME280;4884;42.614;23.340;2024-03-07T03:17:02;92435.72;;;4.95;100.00
9690;BME280;4884;42.614;23.340;2024-03-07T03:19:28;92335.22;;;4.38;100.00
9690;BME280;4884;42.614;23.340;2024-03-07T03:21:53;92323.19;;;4.25;100.00
9690;BME280;4884;42.614;23.340;2024-03-07T03:24:21;92373.91;;;4.55;100.00
9690;BME280;4884;42.614;23.340;2024-03-07T03:26:46;92451.25;;;5.12;100.00
9690;BME280;4884;42.614;23.340;2024-03-07T03:29:12;92448.22;;;4.88;100.00
9690;BME280;4884;42.614;23.340;2024-03-07T03:31:39;92314.00;;;4.11;100.00
9690;BME280;4884;42.614;23.340;2024-03-07T03:34:04;92453.59;;;5.00;100.00
9690;BME280;4884;42.614;23.340;2024-03-07T03:36:30;92429.06;;;4.72;100.00
9690;BME280;4884;42.614;23.340;2024-03-07T03:38:55;92467.28;;;4.87;100.00
9690;BME280;4884;42.614;23.340;2024-03-07T03:41:22;92498.53;;;4.80;100.00
9690;BME280;4884;42.614;23.340;2024-03-07T03:43:48;92478.53;;;4.77;100.00
9690;BME280;4884;42.614;23.340;2024-03-07T03:46:13;92362.06;;;3.97;100.00
9690;BME280;4884;42.614;23.340;2024-03-07T03:48:39;92408.22;;;4.24;100.00
9690;BME280;4884;42.614;23.340;2024-03-07T03:51:07;92454.97;;;4.62;100.00
9690;BME280;4884;42.614;23.340;2024-03-07T03:53:33;92460.97;;;4.57;100.00
9690;BME280;4884;42.614;23.340;2024-03-07T03:55:58;92318.22;;;3.44;100.00
9690;BME280;4884;42.614;23.340;2024-03-07T03:58:24;92291.00;;;3.21;100.00
9690;BME280;4884;42.614;23.340;2024-03-07T04:00:49;92329.63;;;3.38;100.00
9690;BME280;4884;42.614;23.340;2024-03-07T04:03:14;92403.91;;;3.97;100.00
9690;BME280;4884;42.614;23.340;2024-03-07T04:05:40;92448.38;;;4.33;100.00
9690;BME280;4884;42.614;23.340;2024-03-07T04:08:06;92347.28;;;3.66;100.00
9690;BME280;4884;42.614;23.340;2024-03-07T04:10:32;92339.31;;;3.68;100.00
9690;BME280;4884;42.614;23.340;2024-03-07T04:12:58;92443.06;;;4.30;100.00
9690;BME280;4884;42.614;23.340;2024-03-07T04:15:24;92343.09;;;3.70;100.00
9690;BME280;4884;42.614;23.340;2024-03-07T04:17:52;92457.16;;;4.54;100.00
9690;BME280;4884;42.614;23.340;2024-03-07T04:20:17;92328.28;;;3.54;100.00
9690;BME280;4884;42.614;23.340;2024-03-07T04:22:42;92328.19;;;3.59;100.00
9690;BME280;4884;42.614;23.340;2024-03-07T04:25:08;92450.38;;;4.36;100.00
9690;BME280;4884;42.614;23.340;2024-03-07T04:27:35;92471.94;;;4.49;100.00
9690;BME280;4884;42.614;23.340;2024-03-07T04:30:06;92337.22;;;3.70;100.00
9690;BME280;4884;42.614;23.340;2024-03-07T04:32:32;92431.25;;;4.29;100.00
9690;BME280;4884;42.614;23.340;2024-03-07T04:34:59;92360.75;;;3.86;100.00
9690;BME280;4884;42.614;23.340;2024-03-07T04:37:26;92358.13;;;3.63;100.00
9690;BME280;4884;42.614;23.340;2024-03-07T04:39:53;92429.84;;;4.09;100.00
9690;BME280;4884;42.614;23.340;2024-03-07T04:42:18;92334.25;;;3.63;100.00
9690;BME280;4884;42.614;23.340;2024-03-07T04:44:44;92331.34;;;3.56;100.00
9690;BME280;4884;42.614;23.340;2024-03-07T04:47:10;92340.72;;;3.60;100.00
9690;BME280;4884;42.614;23.340;2024-03-07T04:49:35;92337.13;;;3.48;100.00
9690;BME280;4884;42.614;23.340;2024-03-07T04:52:03;92441.94;;;4.09;100.00
9690;BME280;4884;42.614;23.340;2024-03-07T04:54:29;92469.31;;;4.13;100.00
9690;BME280;4884;42.614;23.340;2024-03-07T04:56:55;92445.09;;;4.06;100.00
9690;BME280;4884;42.614;23.340;2024-03-07T04:59:21;92439.84;;;3.43;100.00
9690;BME280;4884;42.614;23.340;2024-03-07T05:01:49;92329.19;;;2.76;100.00
9690;BME280;4884;42.614;23.340;2024-03-07T05:04:17;92382.22;;;3.08;100.00
9690;BME280;4884;42.614;23.340;2024-03-07T05:06:43;92369.47;;;2.89;100.00
9690;BME280;4884;42.614;23.340;2024-03-07T05:09:10;92481.25;;;3.50;100.00
9690;BME280;4884;42.614;23.340;2024-03-07T05:11:46;92497.81;;;3.57;100.00
9690;BME280;4884;42.614;23.340;2024-03-07T05:14:12;92463.78;;;3.52;100.00
9690;BME280;4884;42.614;23.340;2024-03-07T05:16:37;92486.00;;;3.43;100.00
9690;BME280;4884;42.614;23.340;2024-03-07T05:19:02;92342.81;;;2.58;100.00
9690;BME280;4884;42.614;23.340;2024-03-07T05:21:30;92371.47;;;2.60;100.00
9690;BME280;4884;42.614;23.340;2024-03-07T05:24:01;92477.44;;;3.34;100.00
9690;BME280;4884;42.614;23.340;2024-03-07T05:26:28;92441.72;;;3.37;100.00
9690;BME280;4884;42.614;23.340;2024-03-07T05:28:54;92383.75;;;3.09;100.00
9690;BME280;4884;42.614;23.340;2024-03-07T05:31:20;92348.31;;;2.97;100.00
9690;BME280;4884;42.614;23.340;2024-03-07T05:33:46;92357.56;;;3.12;100.00
9690;BME280;4884;42.614;23.340;2024-03-07T05:36:12;92472.47;;;3.97;100.00
9690;BME280;4884;42.614;23.340;2024-03-07T05:38:43;92356.22;;;3.42;100.00
9690;BME280;4884;42.614;23.340;2024-03-07T05:41:09;92465.13;;;4.31;100.00
9690;BME280;4884;42.614;23.340;2024-03-07T05:43:36;92355.56;;;3.63;100.00
9690;BME280;4884;42.614;23.340;2024-03-07T05:46:02;92500.84;;;4.54;100.00
9690;BME280;4884;42.614;23.340;2024-03-07T05:48:28;92464.88;;;4.54;100.00
9690;BME280;4884;42.614;23.340;2024-03-07T05:50:53;92487.06;;;4.50;100.00
9690;BME280;4884;42.614;23.340;2024-03-07T05:53:19;92367.78;;;3.80;100.00
9690;BME280;4884;42.614;23.340;2024-03-07T05:55:44;92464.00;;;4.10;100.00
9690;BME280;4884;42.614;23.340;2024-03-07T05:58:11;92364.56;;;3.47;100.00
9690;BME280;4884;42.614;23.340;2024-03-07T06:00:36;92370.28;;;3.44;100.00
9690;BME280;4884;42.614;23.340;2024-03-07T06:03:04;92401.84;;;3.72;100.00
9690;BME280;4884;42.614;23.340;2024-03-07T06:05:30;92482.06;;;4.18;100.00
9690;BME280;4884;42.614;23.340;2024-03-07T06:07:55;92470.66;;;3.97;100.00
9690;BME280;4884;42.614;23.340;2024-03-07T06:10:22;92370.47;;;3.21;100.00
9690;BME280;4884;42.614;23.340;2024-03-07T06:12:50;92473.31;;;3.92;100.00
9690;BME280;4884;42.614;23.340;2024-03-07T06:15:15;92469.34;;;3.86;100.00
9690;BME280;4884;42.614;23.340;2024-03-07T06:17:41;92449.94;;;3.66;100.00
9690;BME280;4884;42.614;23.340;2024-03-07T06:20:08;92347.72;;;2.87;100.00
9690;BME280;4884;42.614;23.340;2024-03-07T06:22:48;92526.56;;;4.00;100.00
9690;BME280;4884;42.614;23.340;2024-03-07T06:25:13;92387.94;;;3.19;100.00
9690;BME280;4884;42.614;23.340;2024-03-07T06:27:44;92393.06;;;3.32;100.00
9690;BME280;4884;42.614;23.340;2024-03-07T06:30:14;92456.22;;;3.88;100.00
9690;BME280;4884;42.614;23.340;2024-03-07T06:32:41;92389.09;;;3.40;100.00
9690;BME280;4884;42.614;23.340;2024-03-07T06:35:07;92525.44;;;4.20;100.00
9690;BME280;4884;42.614;23.340;2024-03-07T06:37:32;92513.44;;;4.15;100.00
9690;BME280;4884;42.614;23.340;2024-03-07T06:39:58;92493.50;;;4.12;100.00
9690;BME280;4884;42.614;23.340;2024-03-07T06:42:23;92509.63;;;4.26;100.00
9690;BME280;4884;42.614;23.340;2024-03-07T06:44:48;92414.94;;;3.57;100.00
9690;BME280;4884;42.614;23.340;2024-03-07T06:47:14;92413.88;;;3.31;100.00
9690;BME280;4884;42.614;23.340;2024-03-07T06:49:39;92521.19;;;3.69;100.00
9690;BME280;4884;42.614;23.340;2024-03-07T06:52:05;92479.97;;;3.66;100.00
9690;BME280;4884;42.614;23.340;2024-03-07T06:54:31;92409.81;;;3.43;100.00
9690;BME280;4884;42.614;23.340;2024-03-07T06:56:57;92429.19;;;3.63;100.00
9690;BME280;4884;42.614;23.340;2024-03-07T06:59:22;92467.81;;;4.12;100.00
9690;BME280;4884;42.614;23.340;2024-03-07T07:01:48;92418.00;;;4.00;100.00
9690;BME280;4884;42.614;23.340;2024-03-07T07:04:13;92484.03;;;4.48;100.00
9690;BME280;4884;42.614;23.340;2024-03-07T07:06:40;92409.16;;;3.92;100.00
9690;BME280;4884;42.614;23.340;2024-03-07T07:09:08;92520.06;;;4.71;100.00
9690;BME280;4884;42.614;23.340;2024-03-07T07:11:34;92504.59;;;4.84;100.00
9690;BME280;4884;42.614;23.340;2024-03-07T07:14:01;92521.94;;;5.14;100.00
9690;BME280;4884;42.614;23.340;2024-03-07T07:16:27;92497.19;;;5.27;100.00
9690;BME280;4884;42.614;23.340;2024-03-07T07:18:55;92378.88;;;4.52;100.00
9690;BME280;4884;42.614;23.340;2024-03-07T07:21:21;92398.31;;;4.31;100.00
9690;BME280;4884;42.614;23.340;2024-03-07T07:23:46;92521.06;;;5.41;100.00
9690;BME280;4884;42.614;23.340;2024-03-07T07:26:12;92481.59;;;4.66;100.00
9690;BME280;4884;42.614;23.340;2024-03-07T07:28:37;92495.19;;;4.80;100.00
9690;BME280;4884;42.614;23.340;2024-03-07T07:31:04;92363.13;;;4.31;100.00
9690;BME280;4884;42.614;23.340;2024-03-07T07:33:29;92520.34;;;5.49;100.00
9690;BME280;4884;42.614;23.340;2024-03-07T07:35:56;92404.16;;;4.59;100.00
9690;BME280;4884;42.614;23.340;2024-03-07T07:38:22;92471.31;;;5.01;100.00
9690;BME280;4884;42.614;23.340;2024-03-07T07:40:47;92400.69;;;4.63;100.00
9690;BME280;4884;42.614;23.340;2024-03-07T07:43:14;92498.63;;;5.11;100.00
9690;BME280;4884;42.614;23.340;2024-03-07T07:45:39;92443.53;;;4.90;100.00
9690;BME280;4884;42.614;23.340;2024-03-07T07:48:05;92495.31;;;5.63;100.00
9690;BME280;4884;42.614;23.340;2024-03-07T07:50:30;92470.50;;;5.37;100.00
9690;BME280;4884;42.614;23.340;2024-03-07T07:52:59;92375.03;;;4.94;100.00
9690;BME280;4884;42.614;23.340;2024-03-07T07:55:26;92498.97;;;5.71;100.00
9690;BME280;4884;42.614;23.340;2024-03-07T07:58:00;92513.03;;;5.65;100.00
9690;BME280;4884;42.614;23.340;2024-03-07T08:00:29;92507.59;;;5.44;100.00
9690;BME280;4884;42.614;23.340;2024-03-07T08:02:56;92521.63;;;5.60;100.00
9690;BME280;4884;42.614;23.340;2024-03-07T08:05:26;92414.72;;;4.79;100.00
9690;BME280;4884;42.614;23.340;2024-03-07T08:07:53;92430.31;;;4.83;100.00
9690;BME280;4884;42.614;23.340;2024-03-07T08:10:20;92392.56;;;4.70;100.00
9690;BME280;4884;42.614;23.340;2024-03-07T08:12:46;92391.78;;;4.61;100.00
9690;BME280;4884;42.614;23.340;2024-03-07T08:15:12;92416.19;;;4.94;100.00
9690;BME280;4884;42.614;23.340;2024-03-07T08:17:45;92506.91;;;5.52;100.00
9690;BME280;4884;42.614;23.340;2024-03-07T08:20:19;92522.00;;;5.45;100.00
9690;BME280;4884;42.614;23.340;2024-03-07T08:22:49;92383.13;;;4.34;100.00
9690;BME280;4884;42.614;23.340;2024-03-07T08:25:19;92421.03;;;4.73;100.00
9690;BME280;4884;42.614;23.340;2024-03-07T08:27:46;92553.34;;;5.47;100.00
9690;BME280;4884;42.614;23.340;2024-03-07T08:30:13;92543.81;;;5.70;100.00
9690;BME280;4884;42.614;23.340;2024-03-07T08:35:06;92536.88;;;5.48;100.00
9690;BME280;4884;42.614;23.340;2024-03-07T08:37:44;92412.19;;;4.43;100.00
9690;BME280;4884;42.614;23.340;2024-03-07T08:40:10;92453.13;;;4.76;100.00
9690;BME280;4884;42.614;23.340;2024-03-07T08:42:39;92491.38;;;5.13;100.00
9690;BME280;4884;42.614;23.340;2024-03-07T08:45:07;92519.19;;;5.33;100.00
9690;BME280;4884;42.614;23.340;2024-03-07T08:47:36;92553.41;;;5.33;100.00
9690;BME280;4884;42.614;23.340;2024-03-07T08:50:02;92545.53;;;5.52;100.00
9690;BME280;4884;42.614;23.340;2024-03-07T08:52:31;92462.31;;;4.90;100.00
9690;BME280;4884;42.614;23.340;2024-03-07T08:54:57;92363.97;;;3.91;100.00
9690;BME280;4884;42.614;23.340;2024-03-07T08:57:23;92506.38;;;4.97;100.00
9690;BME280;4884;42.614;23.340;2024-03-07T08:59:48;92560.19;;;5.52;100.00
9690;BME280;4884;42.614;23.340;2024-03-07T09:02:14;92560.97;;;5.52;100.00
9690;BME280;4884;42.614;23.340;2024-03-07T09:04:40;92600.47;;;5.34;100.00
9690;BME280;4884;42.614;23.340;2024-03-07T09:07:06;92570.91;;;5.45;100.00
9690;BME280;4884;42.614;23.340;2024-03-07T09:09:33;92591.84;;;5.52;100.00
9690;BME280;4884;42.614;23.340;2024-03-07T09:12:00;92552.09;;;5.22;100.00
9690;BME280;4884;42.614;23.340;2024-03-07T09:14:27;92594.69;;;5.28;100.00
9690;BME280;4884;42.614;23.340;2024-03-07T09:16:52;92461.03;;;4.66;100.00
9690;BME280;4884;42.614;23.340;2024-03-07T09:19:19;92442.94;;;4.71;100.00
9690;BME280;4884;42.614;23.340;2024-03-07T09:21:50;92444.94;;;4.96;100.00
9690;BME280;4884;42.614;23.340;2024-03-07T09:24:15;92466.78;;;5.07;100.00
9690;BME280;4884;42.614;23.340;2024-03-07T09:26:41;92569.13;;;5.98;100.00
9690;BME280;4884;42.614;23.340;2024-03-07T09:29:07;92450.06;;;5.40;100.00
9690;BME280;4884;42.614;23.340;2024-03-07T09:31:33;92559.41;;;6.26;100.00
9690;BME280;4884;42.614;23.340;2024-03-07T09:33:58;92456.47;;;5.51;100.00
9690;BME280;4884;42.614;23.340;2024-03-07T09:36:24;92562.03;;;6.35;100.00
9690;BME280;4884;42.614;23.340;2024-03-07T09:38:50;92478.69;;;5.69;100.00
9690;BME280;4884;42.614;23.340;2024-03-07T09:41:15;92577.41;;;6.18;100.00
9690;BME280;4884;42.614;23.340;2024-03-07T09:43:43;92459.78;;;5.74;100.00
9690;BME280;4884;42.614;23.340;2024-03-07T09:46:09;92564.19;;;6.50;100.00
9690;BME280;4884;42.614;23.340;2024-03-07T09:48:35;92575.63;;;6.66;100.00
9690;BME280;4884;42.614;23.340;2024-03-07T09:51:02;92600.34;;;6.67;100.00
9690;BME280;4884;42.614;23.340;2024-03-07T09:53:30;92505.53;;;6.07;100.00
9690;BME280;4884;42.614;23.340;2024-03-07T09:55:56;92592.84;;;6.40;100.00
9690;BME280;4884;42.614;23.340;2024-03-07T09:58:22;92477.81;;;6.04;100.00
9690;BME280;4884;42.614;23.340;2024-03-07T10:00:51;92476.91;;;5.78;100.00
9690;BME280;4884;42.614;23.340;2024-03-07T10:03:20;92612.88;;;6.21;100.00
9690;BME280;4884;42.614;23.340;2024-03-07T10:05:47;92462.84;;;5.23;100.00
9690;BME280;4884;42.614;23.340;2024-03-07T10:08:12;92582.94;;;5.80;100.00
9690;BME280;4884;42.614;23.340;2024-03-07T10:10:39;92573.28;;;6.08;100.00
9690;BME280;4884;42.614;23.340;2024-03-07T10:13:05;92584.34;;;6.09;100.00
9690;BME280;4884;42.614;23.340;2024-03-07T10:15:32;92552.75;;;5.72;100.00
9690;BME280;4884;42.614;23.340;2024-03-07T10:17:58;92459.28;;;5.63;100.00
9690;BME280;4884;42.614;23.340;2024-03-07T10:20:25;92548.72;;;6.50;100.00
9690;BME280;4884;42.614;23.340;2024-03-07T10:22:50;92556.97;;;6.69;100.00
9690;BME280;4884;42.614;23.340;2024-03-07T10:25:20;92484.72;;;6.35;100.00
9690;BME280;4884;42.614;23.340;2024-03-07T10:27:52;92431.50;;;6.56;100.00
9690;BME280;4884;42.614;23.340;2024-03-07T10:30:18;92452.00;;;7.12;98.96
9690;BME280;4884;42.614;23.340;2024-03-07T10:32:47;92531.69;;;7.31;100.00
9690;BME280;4884;42.614;23.340;2024-03-07T10:35:20;92556.44;;;7.49;100.00
9690;BME280;4884;42.614;23.340;2024-03-07T10:37:46;92568.28;;;7.24;100.00
9690;BME280;4884;42.614;23.340;2024-03-07T10:40:13;92465.19;;;5.94;100.00
9690;BME280;4884;42.614;23.340;2024-03-07T10:42:46;92493.34;;;6.39;100.00
9690;BME280;4884;42.614;23.340;2024-03-07T10:45:18;92433.00;;;5.83;100.00
9690;BME280;4884;42.614;23.340;2024-03-07T10:47:45;92442.78;;;5.73;100.00
9690;BME280;4884;42.614;23.340;2024-03-07T10:50:20;92455.78;;;5.98;100.00
9690;BME280;4884;42.614;23.340;2024-03-07T10:52:58;92579.09;;;6.61;100.00
9690;BME280;4884;42.614;23.340;2024-03-07T10:55:34;92472.50;;;6.10;100.00
9690;BME280;4884;42.614;23.340;2024-03-07T10:58:27;92427.06;;;5.74;100.00
9690;BME280;4884;42.614;23.340;2024-03-07T11:00:58;92539.72;;;6.30;100.00
9690;BME280;4884;42.614;23.340;2024-03-07T11:03:29;92550.59;;;6.75;100.00
9690;BME280;4884;42.614;23.340;2024-03-07T11:05:58;92426.59;;;5.72;100.00
9690;BME280;4884;42.614;23.340;2024-03-07T11:08:25;92537.75;;;6.36;100.00
9690;BME280;4884;42.614;23.340;2024-03-07T11:10:51;92554.97;;;6.57;100.00
9690;BME280;4884;42.614;23.340;2024-03-07T11:13:17;92496.22;;;6.29;100.00
9690;BME280;4884;42.614;23.340;2024-03-07T11:15:46;92566.25;;;6.31;100.00
9690;BME280;4884;42.614;23.340;2024-03-07T11:18:12;92517.94;;;6.05;100.00
9690;BME280;4884;42.614;23.340;2024-03-07T11:20:39;92513.72;;;6.10;100.00
9690;BME280;4884;42.614;23.340;2024-03-07T11:23:30;92552.22;;;6.54;100.00
9690;BME280;4884;42.614;23.340;2024-03-07T11:26:08;92530.72;;;6.11;100.00
9690;BME280;4884;42.614;23.340;2024-03-07T11:28:38;92541.41;;;6.35;100.00
9690;BME280;4884;42.614;23.340;2024-03-07T11:31:13;92429.50;;;5.79;100.00
9690;BME280;4884;42.614;23.340;2024-03-07T11:33:39;92423.03;;;5.90;100.00
9690;BME280;4884;42.614;23.340;2024-03-07T11:36:09;92543.91;;;6.57;100.00
9690;BME280;4884;42.614;23.340;2024-03-07T11:38:37;92530.34;;;6.34;100.00
9690;BME280;4884;42.614;23.340;2024-03-07T11:41:03;92486.69;;;5.98;100.00
9690;BME280;4884;42.614;23.340;2024-03-07T11:43:31;92404.44;;;5.23;100.00
9690;BME280;4884;42.614;23.340;2024-03-07T11:45:59;92470.66;;;5.40;100.00
9690;BME280;4884;42.614;23.340;2024-03-07T11:48:24;92557.00;;;6.30;100.00
9690;BME280;4884;42.614;23.340;2024-03-07T11:50:50;92536.69;;;6.28;100.00
9690;BME280;4884;42.614;23.340;2024-03-07T11:53:16;92398.31;;;5.11;100.00
9690;BME280;4884;42.614;23.340;2024-03-07T11:55:42;92512.34;;;5.81;100.00
9690;BME280;4884;42.614;23.340;2024-03-07T11:58:14;92540.44;;;6.14;100.00
9690;BME280;4884;42.614;23.340;2024-03-07T12:00:45;92542.28;;;5.91;100.00
9690;BME280;4884;42.614;23.340;2024-03-07T12:03:15;92509.25;;;5.93;100.00
9690;BME280;4884;42.614;23.340;2024-03-07T12:05:43;92388.94;;;5.15;100.00
9690;BME280;4884;42.614;23.340;2024-03-07T12:08:10;92468.38;;;5.69;100.00
9690;BME280;4884;42.614;23.340;2024-03-07T12:10:39;92409.09;;;5.21;100.00
9690;BME280;4884;42.614;23.340;2024-03-07T12:13:09;92417.09;;;5.20;100.00
9690;BME280;4884;42.614;23.340;2024-03-07T12:15:37;92429.31;;;5.67;100.00
9690;BME280;4884;42.614;23.340;2024-03-07T12:18:04;92523.28;;;6.57;100.00
9690;BME280;4884;42.614;23.340;2024-03-07T12:20:34;92523.31;;;6.74;100.00
9690;BME280;4884;42.614;23.340;2024-03-07T12:23:00;92506.44;;;6.51;100.00
9690;BME280;4884;42.614;23.340;2024-03-07T12:25:29;92525.56;;;6.58;100.00
9690;BME280;4884;42.614;23.340;2024-03-07T12:28:05;92422.13;;;5.86;100.00
9690;BME280;4884;42.614;23.340;2024-03-07T12:30:34;92498.72;;;6.68;100.00
9690;BME280;4884;42.614;23.340;2024-03-07T12:33:01;92412.78;;;6.07;100.00
9690;BME280;4884;42.614;23.340;2024-03-07T12:35:30;92399.56;;;5.92;100.00
9690;BME280;4884;42.614;23.340;2024-03-07T12:37:56;92394.47;;;6.09;100.00
9690;BME280;4884;42.614;23.340;2024-03-07T12:40:22;92451.25;;;6.69;100.00
9690;BME280;4884;42.614;23.340;2024-03-07T12:42:52;92388.31;;;6.53;100.00
9690;BME280;4884;42.614;23.340;2024-03-07T12:45:20;92462.91;;;7.26;97.98
9690;BME280;4884;42.614;23.340;2024-03-07T12:47:55;92390.09;;;6.95;97.27
9690;BME280;4884;42.614;23.340;2024-03-07T12:50:21;92488.53;;;7.66;97.66
9690;BME280;4884;42.614;23.340;2024-03-07T12:52:47;92397.34;;;7.19;95.11
9690;BME280;4884;42.614;23.340;2024-03-07T12:55:17;92515.28;;;7.52;98.45
9690;BME280;4884;42.614;23.340;2024-03-07T12:57:49;92379.97;;;6.47;98.60
9690;BME280;4884;42.614;23.340;2024-03-07T13:00:17;92379.03;;;6.26;98.38
9690;BME280;4884;42.614;23.340;2024-03-07T13:02:49;92525.00;;;7.13;98.57
9690;BME280;4884;42.614;23.340;2024-03-07T13:05:15;92511.47;;;6.73;99.63
9690;BME280;4884;42.614;23.340;2024-03-07T13:07:46;92491.59;;;6.73;100.00
9690;BME280;4884;42.614;23.340;2024-03-07T13:10:13;92510.84;;;6.59;99.24
9690;BME280;4884;42.614;23.340;2024-03-07T13:12:43;92387.91;;;5.94;100.00
9690;BME280;4884;42.614;23.340;2024-03-07T13:15:14;92400.53;;;6.13;99.11